sensor_id;sensor_type;location;lat;lon;timestamp;P1;durP1;ratioP1;P2;durP2;ratioP2
47669;SDS011;33408;52.062;11.722;2024-02-21T00:02:07;12.98;;;5.68;;
47669;SDS011;33408;52.062;11.722;2024-02-21T00:04:34;15.63;;;5.20;;
47669;SDS011;33408;52.062;11.722;2024-02-21T00:07:01;15.77;;;5.72;;
47669;SDS011;33408;52.062;11.722;2024-02-21T00:09:28;18.45;;;5.53;;
47669;SDS011;33408;52.062;11.722;2024-02-21T00:11:55;21.20;;;6.40;;
47669;SDS011;33408;52.062;11.722;2024-02-21T00:14:25;16.48;;;6.40;;
47669;SDS011;33408;52.062;11.722;2024-02-21T00:16:51;16.98;;;6.13;;
47669;SDS011;33408;52.062;11.722;2024-02-21T00:19:18;22.63;;;6.40;;
47669;SDS011;33408;52.062;11.722;2024-02-21T00:21:44;16.42;;;5.78;;
47669;SDS011;33408;52.062;11.722;2024-02-21T00:24:13;17.67;;;5.70;;
47669;SDS011;33408;52.062;11.722;2024-02-21T00:26:40;19.92;;;5.80;;
47669;SDS011;33408;52.062;11.722;2024-02-21T00:29:06;21.80;;;6.45;;
47669;SDS011;33408;52.062;11.722;2024-02-21T00:31:34;19.55;;;5.60;;
47669;SDS011;33408;52.062;11.722;2024-02-21T00:34:01;20.48;;;6.32;;
47669;SDS011;33408;52.062;11.722;2024-02-21T00:36:27;17.10;;;6.35;;
47669;SDS011;33408;52.062;11.722;2024-02-21T00:38:54;17.83;;;6.40;;
47669;SDS011;33408;52.062;11.722;2024-02-21T00:41:21;21.35;;;7.68;;
47669;SDS011;33408;52.062;11.722;2024-02-21T00:43:48;20.88;;;7.25;;
47669;SDS011;33408;52.062;11.722;2024-02-21T00:46:15;17.33;;;6.70;;
47669;SDS011;33408;52.062;11.722;2024-02-21T00:48:43;25.50;;;6.85;;
47669;SDS011;33408;52.062;11.722;2024-02-21T00:51:09;19.38;;;6.53;;
47669;SDS011;33408;52.062;11.722;2024-02-21T00:53:36;18.95;;;6.40;;
47669;SDS011;33408;52.062;11.722;2024-02-21T00:56:04;22.13;;;7.30;;
47669;SDS011;33408;52.062;11.722;2024-02-21T00:58:30;16.98;;;7.03;;
47669;SDS011;33408;52.062;11.722;2024-02-21T01:00:57;18.27;;;7.18;;
47669;SDS011;33408;52.062;11.722;2024-02-21T01:03:24;23.67;;;7.68;;
47669;SDS011;33408;52.062;11.722;2024-02-21T01:05:52;23.42;;;7.50;;
47669;SDS011;33408;52.062;11.722;2024-02-21T01:08:18;11.77;;;6.22;;
47669;SDS011;33408;52.062;11.722;2024-02-21T01:10:45;17.05;;;7.32;;
47669;SDS011;33408;52.062;11.722;2024-02-21T01:13:11;14.70;;;7.13;;
47669;SDS011;33408;52.062;11.722;2024-02-21T01:15:38;15.32;;;6.68;;
47669;SDS011;33408;52.062;11.722;2024-02-21T01:18:05;21.00;;;7.20;;
47669;SDS011;33408;52.062;11.722;2024-02-21T01:20:32;22.48;;;7.85;;
47669;SDS011;33408;52.062;11.722;2024-02-21T01:23:00;21.65;;;7.78;;
47669;SDS011;33408;52.062;11.722;2024-02-21T01:25:26;17.27;;;7.55;;
47669;SDS011;33408;52.062;11.722;2024-02-21T01:27:54;15.25;;;7.32;;
47669;SDS011;33408;52.062;11.722;2024-02-21T01:30:20;21.58;;;9.70;;
47669;SDS011;33408;52.062;11.722;2024-02-21T01:32:47;22.90;;;8.23;;
47669;SDS011;33408;52.062;11.722;2024-02-21T01:35:13;24.70;;;9.10;;
47669;SDS011;33408;52.062;11.722;2024-02-21T01:37:40;22.45;;;8.10;;
47669;SDS011;33408;52.062;11.722;2024-02-21T01:40:09;18.75;;;7.68;;
47669;SDS011;33408;52.062;11.722;2024-02-21T01:42:37;19.17;;;7.05;;
47669;SDS011;33408;52.062;11.722;2024-02-21T01:45:04;21.92;;;8.18;;
47669;SDS011;33408;52.062;11.722;2024-02-21T01:47:31;20.33;;;9.65;;
47669;SDS011;33408;52.062;11.722;2024-02-21T01:49:59;21.15;;;8.57;;
47669;SDS011;33408;52.062;11.722;2024-02-21T01:52:27;18.67;;;8.45;;
47669;SDS011;33408;52.062;11.722;2024-02-21T01:54:54;19.73;;;8.02;;
47669;SDS011;33408;52.062;11.722;2024-02-21T01:57:23;17.10;;;8.45;;
47669;SDS011;33408;52.062;11.722;2024-02-21T01:59:50;23.88;;;9.60;;
47669;SDS011;33408;52.062;11.722;2024-02-21T02:02:18;22.50;;;9.35;;
47669;SDS011;33408;52.062;11.722;2024-02-21T02:04:45;19.13;;;7.97;;
47669;SDS011;33408;52.062;11.722;2024-02-21T02:07:12;16.05;;;6.85;;
47669;SDS011;33408;52.062;11.722;2024-02-21T02:09:38;15.65;;;7.22;;
47669;SDS011;33408;52.062;11.722;2024-02-21T02:12:05;24.10;;;8.02;;
47669;SDS011;33408;52.062;11.722;2024-02-21T02:14:34;24.13;;;8.90;;
47669;SDS011;33408;52.062;11.722;2024-02-21T02:17:00;22.70;;;7.85;;
47669;SDS011;33408;52.062;11.722;2024-02-21T02:19:27;15.93;;;7.70;;
47669;SDS011;33408;52.062;11.722;2024-02-21T02:21:54;16.83;;;8.57;;
47669;SDS011;33408;52.062;11.722;2024-02-21T02:24:27;19.98;;;7.78;;
47669;SDS011;33408;52.062;11.722;2024-02-21T02:26:54;21.02;;;7.97;;
47669;SDS011;33408;52.062;11.722;2024-02-21T02:29:20;15.98;;;8.27;;
47669;SDS011;33408;52.062;11.722;2024-02-21T02:31:48;21.38;;;7.70;;
47669;SDS011;33408;52.062;11.722;2024-02-21T02:34:17;18.77;;;8.30;;
47669;SDS011;33408;52.062;11.722;2024-02-21T02:36:43;17.58;;;9.00;;
47669;SDS011;33408;52.062;11.722;2024-02-21T02:39:15;15.98;;;8.93;;
47669;SDS011;33408;52.062;11.722;2024-02-21T02:41:43;17.48;;;8.93;;
47669;SDS011;33408;52.062;11.722;2024-02-21T02:44:10;17.95;;;8.25;;
47669;SDS011;33408;52.062;11.722;2024-02-21T02:46:36;17.73;;;7.53;;
47669;SDS011;33408;52.062;11.722;2024-02-21T02:49:06;19.40;;;8.80;;
47669;SDS011;33408;52.062;11.722;2024-02-21T02:51:32;17.58;;;8.13;;
47669;SDS011;33408;52.062;11.722;2024-02-21T02:53:59;16.33;;;8.45;;
47669;SDS011;33408;52.062;11.722;2024-02-21T02:56:25;18.17;;;8.52;;
47669;SDS011;33408;52.062;11.722;2024-02-21T02:58:53;16.13;;;8.07;;
47669;SDS011;33408;52.062;11.722;2024-02-21T03:01:20;18.88;;;8.27;;
47669;SDS011;33408;52.062;11.722;2024-02-21T03:03:47;14.52;;;8.07;;
47669;SDS011;33408;52.062;11.722;2024-02-21T03:06:13;21.40;;;8.27;;
47669;SDS011;33408;52.062;11.722;2024-02-21T03:08:40;17.23;;;9.18;;
47669;SDS011;33408;52.062;11.722;2024-02-21T03:11:07;16.70;;;9.25;;
47669;SDS011;33408;52.062;11.722;2024-02-21T03:13:36;17.67;;;8.85;;
47669;SDS011;33408;52.062;11.722;2024-02-21T03:16:04;17.88;;;8.23;;
47669;SDS011;33408;52.062;11.722;2024-02-21T03:18:31;14.80;;;8.38;;
47669;SDS011;33408;52.062;11.722;2024-02-21T03:20:58;18.13;;;9.55;;
47669;SDS011;33408;52.062;11.722;2024-02-21T03:23:24;17.90;;;9.68;;
47669;SDS011;33408;52.062;11.722;2024-02-21T03:25:51;18.20;;;10.25;;
47669;SDS011;33408;52.062;11.722;2024-02-21T03:28:20;22.90;;;10.02;;
47669;SDS011;33408;52.062;11.722;2024-02-21T03:30:47;15.57;;;9.82;;
47669;SDS011;33408;52.062;11.722;2024-02-21T03:33:15;18.27;;;9.80;;
47669;SDS011;33408;52.062;11.722;2024-02-21T03:35:42;17.17;;;9.95;;
47669;SDS011;33408;52.062;11.722;2024-02-21T03:38:08;19.77;;;10.60;;
47669;SDS011;33408;52.062;11.722;2024-02-21T03:40:35;19.23;;;10.27;;
47669;SDS011;33408;52.062;11.722;2024-02-21T03:43:01;19.10;;;11.10;;
47669;SDS011;33408;52.062;11.722;2024-02-21T03:45:27;19.95;;;10.30;;
47669;SDS011;33408;52.062;11.722;2024-02-21T03:47:54;15.05;;;9.77;;
47669;SDS011;33408;52.062;11.722;2024-02-21T03:50:22;17.83;;;10.02;;
47669;SDS011;33408;52.062;11.722;2024-02-21T03:52:54;19.73;;;10.05;;
47669;SDS011;33408;52.062;11.722;2024-02-21T03:55:20;17.50;;;10.55;;
47669;SDS011;33408;52.062;11.722;2024-02-21T03:57:46;16.85;;;10.55;;
47669;SDS011;33408;52.062;11.722;2024-02-21T04:00:13;20.75;;;10.98;;
47669;SDS011;33408;52.062;11.722;2024-02-21T04:02:41;20.00;;;10.90;;
47669;SDS011;33408;52.062;11.722;2024-02-21T04:05:07;20.25;;;11.52;;
47669;SDS011;33408;52.062;11.722;2024-02-21T04:07:37;20.83;;;12.00;;
47669;SDS011;33408;52.062;11.722;2024-02-21T04:10:04;21.95;;;11.35;;
47669;SDS011;33408;52.062;11.722;2024-02-21T04:12:31;19.15;;;10.25;;
47669;SDS011;33408;52.062;11.722;2024-02-21T04:14:58;18.80;;;10.60;;
47669;SDS011;33408;52.062;11.722;2024-02-21T04:17:24;20.60;;;11.88;;
47669;SDS011;33408;52.062;11.722;2024-02-21T04:19:52;18.77;;;10.40;;
47669;SDS011;33408;52.062;11.722;2024-02-21T04:22:27;20.10;;;12.13;;
47669;SDS011;33408;52.062;11.722;2024-02-21T04:24:55;20.98;;;12.52;;
47669;SDS011;33408;52.062;11.722;2024-02-21T04:27:21;21.40;;;11.88;;
47669;SDS011;33408;52.062;11.722;2024-02-21T04:29:48;21.10;;;12.27;;
47669;SDS011;33408;52.062;11.722;2024-02-21T04:32:14;21.67;;;12.20;;
47669;SDS011;33408;52.062;11.722;2024-02-21T04:34:41;22.23;;;12.68;;
47669;SDS011;33408;52.062;11.722;2024-02-21T04:37:08;19.38;;;12.70;;
47669;SDS011;33408;52.062;11.722;2024-02-21T04:39:34;22.45;;;12.55;;
47669;SDS011;33408;52.062;11.722;2024-02-21T04:42:02;24.08;;;13.10;;
47669;SDS011;33408;52.062;11.722;2024-02-21T04:44:29;23.83;;;13.05;;
47669;SDS011;33408;52.062;11.722;2024-02-21T04:46:55;21.88;;;13.40;;
47669;SDS011;33408;52.062;11.722;2024-02-21T04:49:22;23.85;;;13.18;;
47669;SDS011;33408;52.062;11.722;2024-02-21T04:51:49;19.50;;;12.68;;
47669;SDS011;33408;52.062;11.722;2024-02-21T04:54:15;20.67;;;12.90;;
47669;SDS011;33408;52.062;11.722;2024-02-21T04:56:42;23.45;;;12.45;;
47669;SDS011;33408;52.062;11.722;2024-02-21T04:59:10;17.75;;;11.60;;
47669;SDS011;33408;52.062;11.722;2024-02-21T05:01:36;20.35;;;11.70;;
47669;SDS011;33408;52.062;11.722;2024-02-21T05:04:03;18.77;;;12.02;;
47669;SDS011;33408;52.062;11.722;2024-02-21T05:06:30;22.20;;;14.23;;
47669;SDS011;33408;52.062;11.722;2024-02-21T05:08:57;29.02;;;17.73;;
47669;SDS011;33408;52.062;11.722;2024-02-21T05:11:23;26.85;;;15.13;;
47669;SDS011;33408;52.062;11.722;2024-02-21T05:13:50;23.13;;;11.18;;
47669;SDS011;33408;52.062;11.722;2024-02-21T05:16:18;15.95;;;9.32;;
47669;SDS011;33408;52.062;11.722;2024-02-21T05:18:45;21.00;;;10.25;;
47669;SDS011;33408;52.062;11.722;2024-02-21T05:21:11;18.88;;;10.00;;
47669;SDS011;33408;52.062;11.722;2024-02-21T05:23:38;19.90;;;10.15;;
47669;SDS011;33408;52.062;11.722;2024-02-21T05:26:05;20.08;;;10.25;;
47669;SDS011;33408;52.062;11.722;2024-02-21T05:28:31;15.65;;;9.82;;
47669;SDS011;33408;52.062;11.722;2024-02-21T05:30:58;18.70;;;10.52;;
47669;SDS011;33408;52.062;11.722;2024-02-21T05:33:27;18.67;;;10.65;;
47669;SDS011;33408;52.062;11.722;2024-02-21T05:35:53;21.02;;;11.27;;
47669;SDS011;33408;52.062;11.722;2024-02-21T05:38:20;17.48;;;9.80;;
47669;SDS011;33408;52.062;11.722;2024-02-21T05:40:46;17.50;;;10.77;;
47669;SDS011;33408;52.062;11.722;2024-02-21T05:43:13;20.83;;;10.00;;
47669;SDS011;33408;52.062;11.722;2024-02-21T05:45:40;18.42;;;11.23;;
47669;SDS011;33408;52.062;11.722;2024-02-21T05:48:07;18.75;;;10.35;;
47669;SDS011;33408;52.062;11.722;2024-02-21T05:50:34;19.08;;;11.75;;
47669;SDS011;33408;52.062;11.722;2024-02-21T05:53:01;21.17;;;11.05;;
47669;SDS011;33408;52.062;11.722;2024-02-21T05:55:28;19.42;;;11.65;;
47669;SDS011;33408;52.062;11.722;2024-02-21T05:57:55;18.50;;;11.52;;
47669;SDS011;33408;52.062;11.722;2024-02-21T06:00:21;22.83;;;11.07;;
47669;SDS011;33408;52.062;11.722;2024-02-21T06:02:48;18.27;;;11.05;;
47669;SDS011;33408;52.062;11.722;2024-02-21T06:05:15;20.27;;;10.40;;
47669;SDS011;33408;52.062;11.722;2024-02-21T06:07:43;15.75;;;10.00;;
47669;SDS011;33408;52.062;11.722;2024-02-21T06:10:09;19.67;;;11.68;;
47669;SDS011;33408;52.062;11.722;2024-02-21T06:12:36;16.75;;;11.07;;
47669;SDS011;33408;52.062;11.722;2024-02-21T06:15:03;23.73;;;11.70;;
47669;SDS011;33408;52.062;11.722;2024-02-21T06:17:30;21.92;;;12.15;;
47669;SDS011;33408;52.062;11.722;2024-02-21T06:19:56;19.02;;;11.77;;
47669;SDS011;33408;52.062;11.722;2024-02-21T06:22:23;18.23;;;11.90;;
47669;SDS011;33408;52.062;11.722;2024-02-21T06:24:51;19.95;;;11.82;;
47669;SDS011;33408;52.062;11.722;2024-02-21T06:27:18;20.08;;;11.45;;
47669;SDS011;33408;52.062;11.722;2024-02-21T06:29:45;23.48;;;11.45;;
47669;SDS011;33408;52.062;11.722;2024-02-21T06:32:11;22.13;;;11.55;;
47669;SDS011;33408;52.062;11.722;2024-02-21T06:34:38;22.15;;;12.25;;
47669;SDS011;33408;52.062;11.722;2024-02-21T06:37:05;26.77;;;12.70;;
47669;SDS011;33408;52.062;11.722;2024-02-21T06:39:31;24.63;;;12.40;;
47669;SDS011;33408;52.062;11.722;2024-02-21T06:41:59;20.65;;;11.98;;
47669;SDS011;33408;52.062;11.722;2024-02-21T06:44:26;18.33;;;11.75;;
47669;SDS011;33408;52.062;11.722;2024-02-21T06:46:53;22.45;;;13.55;;
47669;SDS011;33408;52.062;11.722;2024-02-21T06:49:20;27.42;;;16.75;;
47669;SDS011;33408;52.062;11.722;2024-02-21T06:51:46;21.48;;;13.52;;
47669;SDS011;33408;52.062;11.722;2024-02-21T06:54:13;24.17;;;14.93;;
47669;SDS011;33408;52.062;11.722;2024-02-21T06:56:40;25.27;;;14.63;;
47669;SDS011;33408;52.062;11.722;2024-02-21T06:59:08;18.08;;;11.75;;
47669;SDS011;33408;52.062;11.722;2024-02-21T07:01:35;24.52;;;13.05;;
47669;SDS011;33408;52.062;11.722;2024-02-21T07:04:02;19.20;;;12.07;;
47669;SDS011;33408;52.062;11.722;2024-02-21T07:06:28;19.40;;;13.43;;
47669;SDS011;33408;52.062;11.722;2024-02-21T07:08:56;20.27;;;13.63;;
47669;SDS011;33408;52.062;11.722;2024-02-21T07:11:23;19.77;;;13.50;;
47669;SDS011;33408;52.062;11.722;2024-02-21T07:13:49;21.75;;;13.35;;
47669;SDS011;33408;52.062;11.722;2024-02-21T07:16:17;22.35;;;13.20;;
47669;SDS011;33408;52.062;11.722;2024-02-21T07:18:44;20.48;;;13.88;;
47669;SDS011;33408;52.062;11.722;2024-02-21T07:21:10;19.23;;;12.93;;
47669;SDS011;33408;52.062;11.722;2024-02-21T07:23:40;20.35;;;12.48;;
47669;SDS011;33408;52.062;11.722;2024-02-21T07:26:06;20.38;;;12.10;;
47669;SDS011;33408;52.062;11.722;2024-02-21T07:28:33;20.35;;;13.00;;
47669;SDS011;33408;52.062;11.722;2024-02-21T07:31:00;27.05;;;12.93;;
47669;SDS011;33408;52.062;11.722;2024-02-21T07:33:28;21.10;;;12.65;;
47669;SDS011;33408;52.062;11.722;2024-02-21T07:35:55;19.92;;;12.05;;
47669;SDS011;33408;52.062;11.722;2024-02-21T07:38:22;18.30;;;11.80;;
47669;SDS011;33408;52.062;11.722;2024-02-21T07:40:49;19.30;;;12.85;;
47669;SDS011;33408;52.062;11.722;2024-02-21T07:43:15;20.90;;;12.35;;
47669;SDS011;33408;52.062;11.722;2024-02-21T07:45:42;19.38;;;12.48;;
47669;SDS011;33408;52.062;11.722;2024-02-21T07:48:08;20.95;;;12.85;;
47669;SDS011;33408;52.062;11.722;2024-02-21T07:50:37;19.98;;;12.45;;
47669;SDS011;33408;52.062;11.722;2024-02-21T07:53:04;16.38;;;11.65;;
47669;SDS011;33408;52.062;11.722;2024-02-21T07:55:33;17.48;;;12.38;;
47669;SDS011;33408;52.062;11.722;2024-02-21T07:58:01;17.10;;;11.73;;
47669;SDS011;33408;52.062;11.722;2024-02-21T08:00:27;19.10;;;12.20;;
47669;SDS011;33408;52.062;11.722;2024-02-21T08:02:55;19.83;;;12.65;;
47669;SDS011;33408;52.062;11.722;2024-02-21T08:05:22;19.23;;;11.73;;
47669;SDS011;33408;52.062;11.722;2024-02-21T08:07:50;24.38;;;12.38;;
47669;SDS011;33408;52.062;11.722;2024-02-21T08:10:16;18.63;;;11.98;;
47669;SDS011;33408;52.062;11.722;2024-02-21T08:12:43;17.67;;;11.48;;
47669;SDS011;33408;52.062;11.722;2024-02-21T08:15:09;18.48;;;12.15;;
47669;SDS011;33408;52.062;11.722;2024-02-21T08:17:37;18.27;;;10.43;;
47669;SDS011;33408;52.062;11.722;2024-02-21T08:20:04;18.00;;;11.82;;
47669;SDS011;33408;52.062;11.722;2024-02-21T08:22:31;19.85;;;11.38;;
47669;SDS011;33408;52.062;11.722;2024-02-21T08:24:59;15.57;;;11.25;;
47669;SDS011;33408;52.062;11.722;2024-02-21T08:27:26;17.42;;;11.30;;
47669;SDS011;33408;52.062;11.722;2024-02-21T08:29:52;17.98;;;11.02;;
47669;SDS011;33408;52.062;11.722;2024-02-21T08:32:19;16.95;;;11.10;;
47669;SDS011;33408;52.062;11.722;2024-02-21T08:34:46;18.92;;;11.27;;
47669;SDS011;33408;52.062;11.722;2024-02-21T08:37:12;20.73;;;10.93;;
47669;SDS011;33408;52.062;11.722;2024-02-21T08:39:39;17.10;;;9.48;;
47669;SDS011;33408;52.062;11.722;2024-02-21T08:42:07;17.95;;;10.90;;
47669;SDS011;33408;52.062;11.722;2024-02-21T08:44:33;17.83;;;10.05;;
47669;SDS011;33408;52.062;11.722;2024-02-21T08:47:00;17.80;;;10.07;;
47669;SDS011;33408;52.062;11.722;2024-02-21T08:49:28;14.75;;;9.18;;
47669;SDS011;33408;52.062;11.722;2024-02-21T08:51:56;19.55;;;10.32;;
47669;SDS011;33408;52.062;11.722;2024-02-21T08:54:23;16.88;;;9.98;;
47669;SDS011;33408;52.062;11.722;2024-02-21T08:56:49;15.18;;;9.13;;
47669;SDS011;33408;52.062;11.722;2024-02-21T08:59:17;15.77;;;9.32;;
47669;SDS011;33408;52.062;11.722;2024-02-21T09:01:44;17.25;;;9.30;;
47669;SDS011;33408;52.062;11.722;2024-02-21T09:04:10;19.00;;;9.15;;
47669;SDS011;33408;52.062;11.722;2024-02-21T09:06:37;15.68;;;9.90;;
47669;SDS011;33408;52.062;11.722;2024-02-21T09:09:06;16.33;;;8.77;;
47669;SDS011;33408;52.062;11.722;2024-02-21T09:11:33;16.40;;;9.50;;
47669;SDS011;33408;52.062;11.722;2024-02-21T09:14:00;19.15;;;9.55;;
47669;SDS011;33408;52.062;11.722;2024-02-21T09:16:30;17.08;;;9.23;;
47669;SDS011;33408;52.062;11.722;2024-02-21T09:18:57;15.07;;;9.05;;
47669;SDS011;33408;52.062;11.722;2024-02-21T09:21:23;19.42;;;9.32;;
47669;SDS011;33408;52.062;11.722;2024-02-21T09:23:50;15.70;;;9.45;;
47669;SDS011;33408;52.062;11.722;2024-02-21T09:26:16;15.57;;;8.48;;
47669;SDS011;33408;52.062;11.722;2024-02-21T09:28:43;15.07;;;8.73;;
47669;SDS011;33408;52.062;11.722;2024-02-21T09:31:10;14.07;;;8.23;;
47669;SDS011;33408;52.062;11.722;2024-02-21T09:33:38;15.25;;;8.65;;
47669;SDS011;33408;52.062;11.722;2024-02-21T09:36:05;15.38;;;8.90;;
47669;SDS011;33408;52.062;11.722;2024-02-21T09:38:32;13.63;;;8.02;;
47669;SDS011;33408;52.062;11.722;2024-02-21T09:40:59;18.77;;;8.52;;
47669;SDS011;33408;52.062;11.722;2024-02-21T09:43:30;19.40;;;9.18;;
47669;SDS011;33408;52.062;11.722;2024-02-21T09:45:58;18.25;;;9.05;;
47669;SDS011;33408;52.062;11.722;2024-02-21T09:48:27;14.85;;;8.18;;
47669;SDS011;33408;52.062;11.722;2024-02-21T09:51:02;12.68;;;7.72;;
47669;SDS011;33408;52.062;11.722;2024-02-21T09:53:30;17.40;;;9.07;;
47669;SDS011;33408;52.062;11.722;2024-02-21T09:55:58;16.27;;;7.72;;
47669;SDS011;33408;52.062;11.722;2024-02-21T09:58:25;13.35;;;8.75;;
47669;SDS011;33408;52.062;11.722;2024-02-21T10:00:53;15.23;;;7.28;;
47669;SDS011;33408;52.062;11.722;2024-02-21T10:03:22;16.38;;;7.82;;
47669;SDS011;33408;52.062;11.722;2024-02-21T10:05:49;13.27;;;6.57;;
47669;SDS011;33408;52.062;11.722;2024-02-21T10:08:18;14.07;;;6.55;;
47669;SDS011;33408;52.062;11.722;2024-02-21T10:10:46;16.85;;;6.68;;
47669;SDS011;33408;52.062;11.722;2024-02-21T10:13:23;12.38;;;6.43;;
47669;SDS011;33408;52.062;11.722;2024-02-21T10:16:00;11.60;;;5.88;;
47669;SDS011;33408;52.062;11.722;2024-02-21T10:18:30;10.25;;;5.65;;
47669;SDS011;33408;52.062;11.722;2024-02-21T10:21:03;13.68;;;6.07;;
47669;SDS011;33408;52.062;11.722;2024-02-21T10:23:42;12.82;;;6.15;;
47669;SDS011;33408;52.062;11.722;2024-02-21T10:26:10;9.93;;;5.35;;
47669;SDS011;33408;52.062;11.722;2024-02-21T10:28:37;12.27;;;5.78;;
47669;SDS011;33408;52.062;11.722;2024-02-21T10:31:07;14.52;;;6.30;;
47669;SDS011;33408;52.062;11.722;2024-02-21T10:33:34;11.32;;;6.25;;
47669;SDS011;33408;52.062;11.722;2024-02-21T10:36:07;10.73;;;5.68;;
47669;SDS011;33408;52.062;11.722;2024-02-21T10:38:35;12.60;;;5.68;;
47669;SDS011;33408;52.062;11.722;2024-02-21T10:41:04;10.98;;;5.93;;
47669;SDS011;33408;52.062;11.722;2024-02-21T10:43:37;11.35;;;5.60;;
47669;SDS011;33408;52.062;11.722;2024-02-21T10:46:06;9.20;;;5.10;;
47669;SDS011;33408;52.062;11.722;2024-02-21T10:48:39;13.90;;;5.32;;
47669;SDS011;33408;52.062;11.722;2024-02-21T10:51:12;14.48;;;5.68;;
47669;SDS011;33408;52.062;11.722;2024-02-21T10:53:44;11.77;;;5.68;;
47669;SDS011;33408;52.062;11.722;2024-02-21T10:56:20;7.43;;;4.00;;
47669;SDS011;33408;52.062;11.722;2024-02-21T10:58:50;9.60;;;4.07;;
47669;SDS011;33408;52.062;11.722;2024-02-21T11:01:17;10.02;;;4.43;;
47669;SDS011;33408;52.062;11.722;2024-02-21T11:03:45;11.05;;;4.20;;
47669;SDS011;33408;52.062;11.722;2024-02-21T11:06:13;12.07;;;4.55;;
47669;SDS011;33408;52.062;11.722;2024-02-21T11:08:42;10.48;;;4.75;;
47669;SDS011;33408;52.062;11.722;2024-02-21T11:11:11;8.32;;;4.22;;
47669;SDS011;33408;52.062;11.722;2024-02-21T11:13:43;10.27;;;4.68;;
47669;SDS011;33408;52.062;11.722;2024-02-21T11:16:11;17.17;;;5.43;;
47669;SDS011;33408;52.062;11.722;2024-02-21T11:18:47;10.27;;;5.25;;
47669;SDS011;33408;52.062;11.722;2024-02-21T11:21:14;11.18;;;5.00;;
47669;SDS011;33408;52.062;11.722;2024-02-21T11:23:40;11.05;;;5.00;;
47669;SDS011;33408;52.062;11.722;2024-02-21T11:26:08;13.70;;;5.60;;
47669;SDS011;33408;52.062;11.722;2024-02-21T11:28:34;13.48;;;5.50;;
47669;SDS011;33408;52.062;11.722;2024-02-21T11:31:10;13.48;;;6.47;;
47669;SDS011;33408;52.062;11.722;2024-02-21T11:33:40;10.55;;;5.30;;
47669;SDS011;33408;52.062;11.722;2024-02-21T11:36:07;13.65;;;6.13;;
47669;SDS011;33408;52.062;11.722;2024-02-21T11:38:34;12.95;;;5.80;;
47669;SDS011;33408;52.062;11.722;2024-02-21T11:41:01;14.43;;;5.93;;
47669;SDS011;33408;52.062;11.722;2024-02-21T11:43:28;16.27;;;6.22;;
47669;SDS011;33408;52.062;11.722;2024-02-21T11:46:01;12.63;;;5.63;;
47669;SDS011;33408;52.062;11.722;2024-02-21T11:48:30;11.07;;;5.93;;
47669;SDS011;33408;52.062;11.722;2024-02-21T11:50:58;13.48;;;6.22;;
47669;SDS011;33408;52.062;11.722;2024-02-21T11:53:25;13.63;;;6.07;;
47669;SDS011;33408;52.062;11.722;2024-02-21T11:55:56;35.55;;;9.07;;
47669;SDS011;33408;52.062;11.722;2024-02-21T11:58:23;21.60;;;6.18;;
47669;SDS011;33408;52.062;11.722;2024-02-21T12:00:50;14.80;;;6.82;;
47669;SDS011;33408;52.062;11.722;2024-02-21T12:03:16;14.82;;;6.18;;
47669;SDS011;33408;52.062;11.722;2024-02-21T12:05:44;14.15;;;5.57;;
47669;SDS011;33408;52.062;11.722;2024-02-21T12:08:11;13.10;;;5.53;;
47669;SDS011;33408;52.062;11.722;2024-02-21T12:10:38;11.98;;;6.13;;
47669;SDS011;33408;52.062;11.722;2024-02-21T12:13:05;12.23;;;5.10;;
47669;SDS011;33408;52.062;11.722;2024-02-21T12:15:33;14.15;;;5.95;;
47669;SDS011;33408;52.062;11.722;2024-02-21T12:18:00;17.13;;;6.00;;
47669;SDS011;33408;52.062;11.722;2024-02-21T12:20:26;19.33;;;6.80;;
47669;SDS011;33408;52.062;11.722;2024-02-21T12:22:54;13.77;;;6.90;;
47669;SDS011;33408;52.062;11.722;2024-02-21T12:25:22;12.68;;;6.13;;
47669;SDS011;33408;52.062;11.722;2024-02-21T12:27:51;13.00;;;5.00;;
47669;SDS011;33408;52.062;11.722;2024-02-21T12:30:18;12.13;;;5.53;;
47669;SDS011;33408;52.062;11.722;2024-02-21T12:32:45;23.92;;;7.78;;
47669;SDS011;33408;52.062;11.722;2024-02-21T12:35:13;27.35;;;8.20;;
47669;SDS011;33408;52.062;11.722;2024-02-21T12:37:40;15.18;;;5.55;;
47669;SDS011;33408;52.062;11.722;2024-02-21T12:40:10;14.07;;;6.20;;
47669;SDS011;33408;52.062;11.722;2024-02-21T12:42:40;32.13;;;8.43;;
47669;SDS011;33408;52.062;11.722;2024-02-21T12:45:07;35.78;;;8.38;;
47669;SDS011;33408;52.062;11.722;2024-02-21T12:47:34;35.28;;;8.85;;
47669;SDS011;33408;52.062;11.722;2024-02-21T12:50:01;11.23;;;5.75;;
47669;SDS011;33408;52.062;11.722;2024-02-21T12:52:31;23.13;;;6.75;;
47669;SDS011;33408;52.062;11.722;2024-02-21T12:54:58;11.10;;;5.30;;
47669;SDS011;33408;52.062;11.722;2024-02-21T12:57:26;19.50;;;5.90;;
47669;SDS011;33408;52.062;11.722;2024-02-21T12:59:53;12.57;;;5.20;;
47669;SDS011;33408;52.062;11.722;2024-02-21T13:02:20;8.65;;;4.05;;
47669;SDS011;33408;52.062;11.722;2024-02-21T13:04:46;14.10;;;5.35;;
47669;SDS011;33408;52.062;11.722;2024-02-21T13:07:14;10.38;;;3.97;;
47669;SDS011;33408;52.062;11.722;2024-02-21T13:09:41;13.82;;;4.78;;
47669;SDS011;33408;52.062;11.722;2024-02-21T13:12:07;15.63;;;4.30;;
47669;SDS011;33408;52.062;11.722;2024-02-21T13:14:36;17.40;;;5.68;;
47669;SDS011;33408;52.062;11.722;2024-02-21T13:17:04;13.25;;;4.55;;
47669;SDS011;33408;52.062;11.722;2024-02-21T13:19:31;8.90;;;3.60;;
47669;SDS011;33408;52.062;11.722;2024-02-21T13:21:58;10.40;;;4.05;;
47669;SDS011;33408;52.062;11.722;2024-02-21T13:24:24;13.35;;;4.10;;
47669;SDS011;33408;52.062;11.722;2024-02-21T13:26:51;9.52;;;4.03;;
47669;SDS011;33408;52.062;11.722;2024-02-21T13:29:17;8.13;;;3.78;;
47669;SDS011;33408;52.062;11.722;2024-02-21T13:31:49;10.60;;;4.25;;
47669;SDS011;33408;52.062;11.722;2024-02-21T13:34:16;15.50;;;5.30;;
47669;SDS011;33408;52.062;11.722;2024-02-21T13:36:43;11.82;;;4.70;;
47669;SDS011;33408;52.062;11.722;2024-02-21T13:39:10;8.82;;;4.38;;
47669;SDS011;33408;52.062;11.722;2024-02-21T13:41:40;12.27;;;4.30;;
47669;SDS011;33408;52.062;11.722;2024-02-21T13:44:07;11.35;;;3.88;;
47669;SDS011;33408;52.062;11.722;2024-02-21T13:46:35;9.68;;;3.65;;
47669;SDS011;33408;52.062;11.722;2024-02-21T13:49:04;8.30;;;3.47;;
47669;SDS011;33408;52.062;11.722;2024-02-21T13:51:32;18.15;;;5.32;;
47669;SDS011;33408;52.062;11.722;2024-02-21T13:54:02;9.73;;;3.67;;
47669;SDS011;33408;52.062;11.722;2024-02-21T13:56:29;9.75;;;3.10;;
47669;SDS011;33408;52.062;11.722;2024-02-21T13:58:57;12.68;;;4.03;;
47669;SDS011;33408;52.062;11.722;2024-02-21T14:01:24;12.35;;;4.43;;
47669;SDS011;33408;52.062;11.722;2024-02-21T14:03:51;10.57;;;4.18;;
47669;SDS011;33408;52.062;11.722;2024-02-21T14:06:19;9.55;;;3.95;;
47669;SDS011;33408;52.062;11.722;2024-02-21T14:08:46;8.68;;;3.75;;
47669;SDS011;33408;52.062;11.722;2024-02-21T14:11:13;28.92;;;5.07;;
47669;SDS011;33408;52.062;11.722;2024-02-21T14:13:40;404.48;;;42.85;;
47669;SDS011;33408;52.062;11.722;2024-02-21T14:16:09;33.42;;;4.78;;
47669;SDS011;33408;52.062;11.722;2024-02-21T14:18:38;9.55;;;4.00;;
47669;SDS011;33408;52.062;11.722;2024-02-21T14:21:06;11.55;;;3.65;;